Time;durP1;ratioP1;P1;durP2;ratioP2;P2;SDS_P1;SDS_P2;PMS_P1;PMS_P2;Temp;Humidity;BMP_temperature;BMP_pressure;BME280_temperature;BME280_humidity;BME280_pressure;Samples;Min_cycle;Max_cycle;Signal;HPM_P1;HPM_P2
2023/05/09 00:01:38;;;;;;;9.77;6.10;;;;;;;11.51;nan;-24138.63;4975312;28;20201;-69
2023/05/09 00:04:04;;;;;;;9.47;6.47;;;;;;;11.58;nan;-24140.31;4975191;28;20301;-68
2023/05/09 00:06:40;;;;;;;11.32;6.32;;;;;;;11.59;nan;-24140.59;4974987;28;20217;-68
2023/05/09 00:09:06;;;;;;;9.80;6.38;;;;;;;11.59;nan;-24140.75;4975816;28;20172;-71
2023/05/09 00:11:33;;;;;;;10.97;6.90;;;;;;;11.55;nan;-24139.63;4975442;28;20247;-67
2023/05/09 00:14:01;;;;;;;10.50;6.90;;;;;;;11.55;nan;-24139.47;4975342;28;20169;-69
2023/05/09 00:16:28;;;;;;;14.17;7.10;;;;;;;11.49;nan;-24137.94;4961110;28;20258;-69
2023/05/09 00:18:54;;;;;;;12.13;7.17;;;;;;;11.52;nan;-24138.91;4881064;28;20722;-69
2023/05/09 00:21:21;;;;;;;14.13;7.53;;;;;;;11.45;nan;-24136.94;4941835;28;20197;-69
2023/05/09 00:23:47;;;;;;;12.80;7.23;;;;;;;11.48;nan;-24137.78;4847942;28;20680;-69
2023/05/09 00:26:12;;;;;;;11.80;7.43;;;;;;;11.58;nan;-24140.31;4960499;28;20181;-69
2023/05/09 00:28:37;;;;;;;11.55;6.97;;;;;;;11.54;nan;-24139.34;4974245;28;20189;-67
2023/05/09 00:31:03;;;;;;;11.53;7.30;;;;;;;11.41;nan;-24135.66;4989682;28;20185;-67
2023/05/09 00:33:29;;;;;;;14.77;7.83;;;;;;;11.64;nan;-24142.16;4974576;28;20188;-68
2023/05/09 00:35:55;;;;;;;13.77;7.57;;;;;;;11.61;nan;-24141.16;4974820;28;20562;-67
2023/05/09 00:38:21;;;;;;;10.10;6.63;;;;;;;11.56;nan;-24139.75;4974497;28;20173;-67
2023/05/09 00:40:47;;;;;;;11.87;7.13;;;;;;;11.41;nan;-24135.81;4974386;28;20185;-67
2023/05/09 00:43:12;;;;;;;13.70;6.87;;;;;;;11.34;nan;-24133.69;4974295;28;20176;-68
2023/05/09 00:45:38;;;;;;;17.23;7.63;;;;;;;11.42;nan;-24136.09;4974236;28;20177;-68
2023/05/09 00:48:03;;;;;;;11.87;7.03;;;;;;;11.44;nan;-24136.66;4974030;28;20565;-69
2023/05/09 00:50:30;;;;;;;15.27;7.60;;;;;;;11.62;nan;-24141.59;4974933;28;20177;-68
2023/05/09 00:52:56;;;;;;;11.70;7.60;;;;;;;11.36;nan;-24134.41;4976427;28;20209;-69
2023/05/09 00:55:22;;;;;;;9.55;6.38;;;;;;;11.50;nan;-24138.22;4975632;28;20173;-68
2023/05/09 00:57:47;;;;;;;13.63;7.13;;;;;;;11.70;nan;-24143.69;4974594;28;20717;-69
2023/05/09 01:00:13;;;;;;;12.85;7.18;;;;;;;11.40;nan;-24135.38;4974123;28;20193;-67
2023/05/09 01:02:45;;;;;;;13.57;7.17;;;;;;;11.48;nan;-24137.78;4974406;28;20289;-67
2023/05/09 01:05:11;;;;;;;17.57;7.40;;;;;;;11.09;nan;-24126.78;4974087;28;20200;-69
2023/05/09 01:07:59;;;;;;;16.20;7.18;;;;;;;11.24;nan;-24131.03;4974208;28;20169;-67
2023/05/09 01:10:42;;;;;;;11.70;7.35;;;;;;;11.22;nan;-24130.47;4974203;28;20228;-67
2023/05/09 01:13:26;;;;;;;12.70;6.87;;;;;;;11.34;nan;-24133.69;4974372;28;20177;-69
2023/05/09 01:16:00;;;;;;;13.07;7.38;;;;;;;11.26;nan;-24131.59;4974267;28;20625;-67
2023/05/09 01:18:34;;;;;;;11.60;7.27;;;;;;;11.36;nan;-24134.25;4974106;28;20180;-68
2023/05/09 01:21:07;;;;;;;11.90;7.20;;;;;;;11.24;nan;-24131.03;4974089;28;20255;-68
2023/05/09 01:23:56;;;;;;;15.30;8.10;;;;;;;11.34;nan;-24133.69;4973920;28;20205;-68
2023/05/09 01:26:55;;;;;;;12.27;7.23;;;;;;;10.99;nan;-24123.97;4973928;28;20181;-68
2023/05/09 01:29:42;;;;;;;12.47;6.80;;;;;;;11.21;nan;-24130.19;4975812;28;20197;-68
2023/05/09 01:32:14;;;;;;;12.03;6.70;;;;;;;11.05;nan;-24125.66;4973603;28;20189;-67
2023/05/09 01:34:43;;;;;;;14.10;7.67;;;;;;;11.26;nan;-24131.44;4973796;28;20184;-67
2023/05/09 01:37:11;;;;;;;12.65;7.35;;;;;;;11.21;nan;-24130.19;4973350;28;20252;-66
2023/05/09 01:39:40;;;;;;;12.40;7.40;;;;;;;11.34;nan;-24133.84;4973585;28;20170;-68
2023/05/09 01:42:08;;;;;;;15.57;7.40;;;;;;;11.20;nan;-24129.88;4972443;28;20235;-67
2023/05/09 01:44:38;;;;;;;11.90;6.90;;;;;;;11.12;nan;-24127.63;4973567;28;20288;-67
2023/05/09 01:47:06;;;;;;;11.50;7.50;;;;;;;10.98;nan;-24123.69;4973792;28;20535;-68
2023/05/09 01:49:34;;;;;;;14.33;7.37;;;;;;;10.81;nan;-24119.03;4973587;28;20571;-67
2023/05/09 01:52:03;;;;;;;12.47;7.43;;;;;;;11.33;nan;-24133.56;4972047;28;20275;-68
2023/05/09 01:54:30;;;;;;;18.40;7.03;;;;;;;11.30;nan;-24132.56;4972895;28;20267;-67
2023/05/09 01:56:57;;;;;;;13.80;8.13;;;;;;;11.29;nan;-24132.44;4973077;28;20169;-68
2023/05/09 01:59:25;;;;;;;14.43;8.20;;;;;;;11.19;nan;-24129.59;4972635;28;20319;-67
2023/05/09 02:01:51;;;;;;;12.20;7.07;;;;;;;11.27;nan;-24131.88;4972622;28;20581;-67
2023/05/09 02:04:18;;;;;;;11.50;7.07;;;;;;;11.07;nan;-24126.22;4975023;28;20185;-69
2023/05/09 02:06:49;;;;;;;13.30;7.23;;;;;;;10.96;nan;-24123.13;4972847;28;20181;-68
2023/05/09 02:09:15;;;;;;;13.43;7.57;;;;;;;11.29;nan;-24132.28;4972268;28;20181;-69
2023/05/09 02:11:40;;;;;;;12.83;7.60;;;;;;;11.10;nan;-24126.94;4972876;28;20711;-68
2023/05/09 02:14:07;;;;;;;14.37;8.30;;;;;;;11.10;nan;-24126.94;4972761;28;20216;-68
2023/05/09 02:16:32;;;;;;;15.13;7.60;;;;;;;11.13;nan;-24127.91;4973189;28;20181;-67
2023/05/09 02:18:57;;;;;;;12.90;7.73;;;;;;;11.11;nan;-24127.34;4972747;28;20657;-69
2023/05/09 02:21:23;;;;;;;13.90;7.20;;;;;;;11.06;nan;-24125.94;4972736;28;20209;-68
2023/05/09 02:23:49;;;;;;;11.40;7.10;;;;;;;10.86;nan;-24120.44;4971294;28;20276;-68
2023/05/09 02:26:14;;;;;;;15.80;7.10;;;;;;;;;;4971690;28;20672;-67
2023/05/09 02:28:43;;;;;;;14.53;7.30;;;;;;;10.86;nan;-24120.31;4972762;28;20178;-67
2023/05/09 02:31:10;;;;;;;10.70;6.63;;;;;;;10.85;nan;-24120.16;4972954;28;20179;-67
2023/05/09 02:33:38;;;;;;;13.40;7.73;;;;;;;10.99;nan;-24124.13;4973159;28;20704;-67
2023/05/09 02:36:04;;;;;;;12.67;7.47;;;;;;;11.17;nan;-24129.03;4973088;28;20256;-66
2023/05/09 02:38:31;;;;;;;12.30;7.70;;;;;;;11.23;nan;-24130.75;4972622;28;20178;-67
2023/05/09 02:40:56;;;;;;;14.30;8.00;;;;;;;10.96;nan;-24123.13;4975159;28;20233;-67
2023/05/09 02:43:22;;;;;;;14.50;7.50;;;;;;;10.90;nan;-24121.44;4973051;28;20219;-67
2023/05/09 02:45:47;;;;;;;16.13;7.80;;;;;;;11.15;nan;-24128.34;4972827;28;20181;-67
2023/05/09 02:48:12;;;;;;;13.50;7.40;;;;;;;11.13;nan;-24127.78;4973125;28;20182;-69
2023/05/09 02:50:40;;;;;;;14.83;7.37;;;;;;;10.84;nan;-24119.75;4973126;28;20192;-68
2023/05/09 02:53:06;;;;;;;13.17;7.50;;;;;;;11.12;nan;-24127.50;4975348;28;20251;-66
2023/05/09 02:55:31;;;;;;;14.03;7.10;;;;;;;11.16;nan;-24128.75;4976908;28;20162;-68
2023/05/09 02:57:56;;;;;;;14.80;7.83;;;;;;;11.21;nan;-24130.03;4977369;28;20260;-68
2023/05/09 03:00:24;;;;;;;12.63;7.13;;;;;;;11.22;nan;-24130.47;4976979;28;20272;-67
2023/05/09 03:02:50;;;;;;;13.40;6.70;;;;;;;10.84;nan;-24119.75;4977150;28;20680;-67
2023/05/09 03:05:15;;;;;;;12.93;7.77;;;;;;;11.06;nan;-24126.09;4976123;28;20180;-69
2023/05/09 03:07:40;;;;;;;16.53;8.50;;;;;;;11.11;nan;-24127.34;4976149;28;20182;-68
2023/05/09 03:10:06;;;;;;;12.00;6.90;;;;;;;10.84;nan;-24119.75;4976284;28;20303;-67
2023/05/09 03:12:32;;;;;;;16.83;7.67;;;;;;;10.87;nan;-24120.72;4976151;28;20196;-67
2023/05/09 03:14:57;;;;;;;12.40;7.30;;;;;;;10.87;nan;-24120.72;4976568;28;20178;-67
2023/05/09 03:17:22;;;;;;;13.80;7.27;;;;;;;11.16;nan;-24128.75;4978174;28;20200;-67
2023/05/09 03:19:48;;;;;;;12.73;7.53;;;;;;;10.47;nan;-24109.59;4976168;28;20181;-67
2023/05/09 03:22:14;;;;;;;14.87;7.47;;;;;;;10.85;nan;-24120.16;4977884;28;20232;-67
2023/05/09 03:24:39;;;;;;;12.40;6.97;;;;;;;11.10;nan;-24127.06;4976158;28;20207;-68
2023/05/09 03:27:05;;;;;;;13.13;7.17;;;;;;;10.92;nan;-24122.00;4974713;28;20189;-68
2023/05/09 03:29:32;;;;;;;14.63;7.07;;;;;;;10.74;nan;-24117.06;4975857;28;20679;-68
2023/05/09 03:31:57;;;;;;;13.37;7.13;;;;;;;10.99;nan;-24123.97;4975961;28;20189;-68
2023/05/09 03:34:23;;;;;;;14.43;7.83;;;;;;;10.89;nan;-24121.28;4975776;28;20665;-67
2023/05/09 03:36:48;;;;;;;15.17;8.30;;;;;;;10.82;nan;-24119.31;4975709;28;20671;-68
2023/05/09 03:39:14;;;;;;;16.67;8.00;;;;;;;11.08;nan;-24126.50;4976224;28;20703;-67
2023/05/09 03:41:40;;;;;;;13.87;7.27;;;;;;;11.19;nan;-24129.59;4975715;28;20201;-66
2023/05/09 03:44:05;;;;;;;13.67;8.23;;;;;;;11.13;nan;-24127.78;4975872;28;20177;-67
2023/05/09 03:46:31;;;;;;;14.03;7.93;;;;;;;11.08;nan;-24126.66;4975993;28;20166;-66
2023/05/09 03:48:56;;;;;;;14.47;7.60;;;;;;;11.24;nan;-24131.03;4975648;28;20549;-67
2023/05/09 03:51:21;;;;;;;16.93;7.37;;;;;;;10.94;nan;-24122.56;4975685;28;20192;-67
2023/05/09 03:53:48;;;;;;;13.70;7.70;;;;;;;11.26;nan;-24131.44;4977545;28;20719;-67
2023/05/09 03:56:13;;;;;;;12.67;7.87;;;;;;;10.85;nan;-24120.03;4973865;28;20197;-68
2023/05/09 03:58:38;;;;;;;14.57;8.50;;;;;;;11.23;nan;-24130.59;4975255;28;20188;-68
2023/05/09 04:01:04;;;;;;;13.17;8.23;;;;;;;11.21;nan;-24130.03;4975230;28;20208;-67
2023/05/09 04:03:30;;;;;;;14.87;8.17;;;;;;;11.06;nan;-24125.94;4974372;28;20176;-66
2023/05/09 04:05:56;;;;;;;16.13;8.97;;;;;;;11.26;nan;-24131.44;4976242;28;20625;-67
2023/05/09 04:08:22;;;;;;;12.73;7.87;;;;;;;11.07;nan;-24126.22;4975638;28;20192;-67
2023/05/09 04:10:49;;;;;;;14.10;7.77;;;;;;;11.36;nan;-24134.41;4974909;28;20225;-68
2023/05/09 04:13:15;;;;;;;20.73;7.50;;;;;;;11.43;nan;-24136.38;4975157;28;20657;-68
2023/05/09 04:15:40;;;;;;;14.30;7.77;;;;;;;11.39;nan;-24135.25;4974889;28;20232;-67
2023/05/09 04:18:06;;;;;;;17.50;7.47;;;;;;;;;;4974718;28;20185;-68
2023/05/09 04:20:31;;;;;;;18.43;7.80;;;;;;;11.36;nan;-24134.41;4974824;28;20182;-68
2023/05/09 04:22:57;;;;;;;14.80;8.10;;;;;;;11.19;nan;-24129.47;4975280;28;20204;-68
2023/05/09 04:25:23;;;;;;;13.40;7.73;;;;;;;11.24;nan;-24131.03;4974971;28;20184;-67
2023/05/09 04:27:48;;;;;;;11.80;7.23;;;;;;;11.20;nan;-24129.75;4974818;28;20169;-67
2023/05/09 04:30:14;;;;;;;15.02;7.82;;;;;;;10.87;nan;-24120.59;4976775;28;20617;-66
2023/05/09 04:32:44;;;;;;;16.48;8.38;;;;;;;10.42;nan;-24108.03;4989727;28;20177;-67
2023/05/09 04:35:10;;;;;;;14.68;7.97;;;;;;;11.12;nan;-24127.63;4974494;28;20653;-68
2023/05/09 04:37:35;;;;;;;15.85;7.97;;;;;;;11.21;nan;-24130.03;4974407;28;20224;-67
2023/05/09 04:40:01;;;;;;;20.40;8.93;;;;;;;11.00;nan;-24124.41;4974778;28;20605;-66
2023/05/09 04:42:26;;;;;;;15.73;8.57;;;;;;;11.19;nan;-24129.59;4979267;28;20286;-66
2023/05/09 04:44:52;;;;;;;16.08;9.20;;;;;;;11.28;nan;-24132.00;4976622;28;20189;-67
2023/05/09 04:47:17;;;;;;;16.73;9.25;;;;;;;10.97;nan;-24123.41;4981061;28;20181;-69
2023/05/09 04:49:43;;;;;;;18.38;9.20;;;;;;;11.29;nan;-24132.44;4978718;28;20181;-68
2023/05/09 04:52:08;;;;;;;15.30;9.25;;;;;;;11.19;nan;-24129.59;4977350;28;20656;-66
2023/05/09 04:54:34;;;;;;;17.27;9.67;;;;;;;11.22;nan;-24130.47;4977692;28;20272;-68
2023/05/09 04:56:59;;;;;;;14.13;8.27;;;;;;;11.22;nan;-24130.47;4975519;28;20351;-68
2023/05/09 04:59:25;;;;;;;17.15;8.15;;;;;;;11.28;nan;-24132.00;4978131;28;20264;-67
2023/05/09 05:01:50;;;;;;;16.75;8.75;;;;;;;11.00;nan;-24124.25;4978121;28;20555;-68
2023/05/09 05:04:15;;;;;;;15.43;7.47;;;;;;;10.92;nan;-24122.00;4973260;28;20254;-68
2023/05/09 05:06:41;;;;;;;15.98;8.77;;;;;;;11.16;nan;-24128.75;4976948;28;20178;-67
2023/05/09 05:09:06;;;;;;;16.00;8.60;;;;;;;11.31;nan;-24132.84;4976282;28;20181;-67
2023/05/09 05:11:32;;;;;;;16.23;8.88;;;;;;;11.45;nan;-24136.81;4973585;28;20236;-67
2023/05/09 05:13:57;;;;;;;16.17;8.52;;;;;;;11.45;nan;-24136.81;4973492;28;20256;-66
2023/05/09 05:16:22;;;;;;;17.35;9.70;;;;;;;11.32;nan;-24133.28;4973812;28;20572;-69
2023/05/09 05:18:48;;;;;;;13.18;7.28;;;;;;;11.44;nan;-24136.66;4973426;28;20259;-67
2023/05/09 05:21:15;;;;;;;18.30;8.25;;;;;;;11.32;nan;-24133.13;4973357;28;20193;-67
2023/05/09 05:23:40;;;;;;;13.15;7.47;;;;;;;11.18;nan;-24129.19;4973558;28;20285;-68
2023/05/09 05:26:06;;;;;;;17.48;8.57;;;;;;;11.04;nan;-24125.53;4971881;28;20634;-67
2023/05/09 05:28:31;;;;;;;18.95;9.23;;;;;;;11.10;nan;-24127.06;4973230;28;20601;-68
2023/05/09 05:30:56;;;;;;;18.02;9.15;;;;;;;11.44;nan;-24136.50;4971768;28;20168;-68
2023/05/09 05:33:22;;;;;;;16.63;9.05;;;;;;;11.38;nan;-24134.97;4972764;28;20268;-68
2023/05/09 05:35:47;;;;;;;14.98;8.82;;;;;;;11.41;nan;-24135.81;4973202;28;20720;-68
2023/05/09 05:38:13;;;;;;;14.52;8.35;;;;;;;11.45;nan;-24136.81;4972943;28;20285;-67
2023/05/09 05:40:38;;;;;;;14.90;7.82;;;;;;;11.06;nan;-24125.94;4972744;28;20173;-69
2023/05/09 05:43:03;;;;;;;14.18;7.53;;;;;;;11.14;nan;-24128.06;4971528;28;20212;-68
2023/05/09 05:45:29;;;;;;;16.85;8.13;;;;;;;11.08;nan;-24126.50;4972969;28;20197;-68
2023/05/09 05:47:55;;;;;;;15.70;7.72;;;;;;;11.28;nan;-24132.00;4972977;28;20162;-69
2023/05/09 05:50:21;;;;;;;17.27;6.82;;;;;;;11.26;nan;-24131.59;4973238;28;20232;-68
2023/05/09 05:52:46;;;;;;;13.85;7.13;;;;;;;11.19;nan;-24129.59;4972833;28;20200;-68
2023/05/09 05:55:11;;;;;;;15.95;7.68;;;;;;;11.19;nan;-24129.59;4973050;28;20201;-69
2023/05/09 05:57:37;;;;;;;16.30;8.82;;;;;;;10.92;nan;-24122.13;4972487;28;20177;-67
2023/05/09 06:00:07;;;;;;;20.65;7.68;;;;;;;11.15;nan;-24128.47;4972704;28;20173;-67
2023/05/09 06:02:33;;;;;;;16.50;8.27;;;;;;;11.20;nan;-24129.88;4972401;28;20219;-67
2023/05/09 06:04:58;;;;;;;13.50;8.23;;;;;;;10.69;nan;-24115.66;4972959;28;20663;-67
2023/05/09 06:07:24;;;;;;;16.13;8.75;;;;;;;11.34;nan;-24133.69;4987655;28;20181;-68
2023/05/09 06:09:49;;;;;;;14.50;8.25;;;;;;;11.24;nan;-24130.88;4972452;28;20185;-68
2023/05/09 06:12:15;;;;;;;16.48;8.60;;;;;;;11.35;nan;-24133.97;4972822;28;20172;-68
2023/05/09 06:14:41;;;;;;;15.85;8.23;;;;;;;11.25;nan;-24131.16;4972483;28;20198;-69
2023/05/09 06:17:07;;;;;;;15.55;8.40;;;;;;;11.00;nan;-24124.41;4972579;28;20193;-68
2023/05/09 06:19:32;;;;;;;17.45;9.02;;;;;;;6.68;nan;-24003.44;4971467;28;20192;-68
2023/05/09 06:21:58;;;;;;;16.65;8.77;;;;;;;11.07;nan;-24126.38;4972612;28;20200;-68
2023/05/09 06:24:23;;;;;;;17.33;8.82;;;;;;;11.40;nan;-24135.53;4972427;28;20180;-68
2023/05/09 06:26:49;;;;;;;15.27;8.32;;;;;;;11.18;nan;-24129.19;4971990;28;20181;-68
2023/05/09 06:29:15;;;;;;;17.38;9.15;;;;;;;11.44;nan;-24136.66;4972615;28;20316;-68
2023/05/09 06:31:40;;;;;;;13.48;7.90;;;;;;;11.52;nan;-24138.78;4972400;28;20268;-68
2023/05/09 06:34:06;;;;;;;15.48;8.98;;;;;;;11.35;nan;-24134.13;4972652;28;20177;-68
2023/05/09 06:36:33;;;;;;;16.30;8.63;;;;;;;11.46;nan;-24137.22;4971290;28;20190;-67
2023/05/09 06:38:58;;;;;;;16.08;8.45;;;;;;;11.25;nan;-24131.16;4972634;28;20184;-68
2023/05/09 06:41:24;;;;;;;13.88;8.18;;;;;;;11.46;nan;-24137.22;4972389;28;20245;-68
2023/05/09 06:43:50;;;;;;;13.13;8.02;;;;;;;11.38;nan;-24134.81;4972088;28;20182;-66
2023/05/09 06:46:15;;;;;;;20.00;8.98;;;;;;;11.51;nan;-24138.63;4971586;28;20174;-68
2023/05/09 06:48:41;;;;;;;15.85;8.57;;;;;;;11.42;nan;-24136.09;4972241;28;20173;-69
2023/05/09 06:51:07;;;;;;;16.38;8.43;;;;;;;11.44;nan;-24136.50;4971754;28;20185;-66
2023/05/09 06:53:32;;;;;;;14.18;8.68;;;;;;;11.52;nan;-24138.78;4972108;28;20186;-68
2023/05/09 06:55:58;;;;;;;16.83;8.18;;;;;;;11.35;nan;-24134.13;4972262;28;20180;-68
2023/05/09 06:58:23;;;;;;;16.25;8.38;;;;;;;11.41;nan;-24135.81;4971985;28;20170;-69
2023/05/09 07:00:50;;;;;;;15.85;8.18;;;;;;;11.71;nan;-24144.13;4971692;28;20170;-68
2023/05/09 07:03:15;;;;;;;16.75;8.13;;;;;;;11.78;nan;-24145.97;4972096;28;20182;-67
2023/05/09 07:05:40;;;;;;;15.77;7.35;;;;;;;11.56;nan;-24139.75;4986688;28;20174;-67
2023/05/09 07:08:06;;;;;;;14.68;8.30;;;;;;;11.62;nan;-24141.44;4970761;28;20185;-69
2023/05/09 07:10:31;;;;;;;14.50;7.82;;;;;;;11.71;nan;-24143.97;4972013;28;20244;-68
2023/05/09 07:12:57;;;;;;;15.18;7.90;;;;;;;11.60;nan;-24141.03;4972222;28;20253;-68
2023/05/09 07:15:23;;;;;;;15.15;7.38;;;;;;;11.72;nan;-24144.41;4971849;28;20649;-69
2023/05/09 07:17:48;;;;;;;15.30;7.88;;;;;;;11.64;nan;-24142.00;4972025;28;20170;-67
2023/05/09 07:20:13;;;;;;;17.23;7.65;;;;;;;11.87;nan;-24148.63;4970666;28;20588;-67
2023/05/09 07:22:39;;;;;;;15.82;8.13;;;;;;;11.64;nan;-24142.00;4971447;28;20360;-68
2023/05/09 07:25:07;;;;;;;18.65;9.52;;;;;;;11.65;nan;-24142.28;4971806;28;20186;-67
2023/05/09 07:27:33;;;;;;;16.65;8.00;;;;;;;11.74;nan;-24144.84;4971906;28;20192;-68
2023/05/09 07:29:59;;;;;;;18.50;7.97;;;;;;;11.82;nan;-24147.09;4971734;28;20264;-66
2023/05/09 07:32:27;;;;;;;18.67;8.18;;;;;;;11.40;nan;-24135.53;4971882;28;20197;-68
2023/05/09 07:34:53;;;;;;;21.60;8.63;;;;;;;11.57;nan;-24140.19;4971647;28;20188;-68
2023/05/09 07:37:18;;;;;;;16.85;8.95;;;;;;;11.68;nan;-24143.28;4971833;28;20268;-68
2023/05/09 07:39:45;;;;;;;17.67;8.20;;;;;;;11.67;nan;-24143.00;4973887;28;20363;-67
2023/05/09 07:42:10;;;;;;;16.33;8.63;;;;;;;11.82;nan;-24147.22;4974851;28;20204;-68
2023/05/09 07:44:35;;;;;;;16.58;8.73;;;;;;;11.89;nan;-24149.06;4974636;28;20177;-68
2023/05/09 07:47:01;;;;;;;18.88;8.60;;;;;;;11.99;nan;-24151.72;4974768;28;20621;-67
2023/05/09 07:49:26;;;;;;;17.73;9.15;;;;;;;11.79;nan;-24146.25;4975149;28;20180;-69
2023/05/09 07:51:52;;;;;;;22.05;8.75;;;;;;;11.77;nan;-24145.81;4975160;28;20173;-69
2023/05/09 07:54:17;;;;;;;16.20;8.82;;;;;;;11.69;nan;-24143.41;4975110;28;20188;-67
2023/05/09 07:56:43;;;;;;;19.30;9.55;;;;;;;11.94;nan;-24150.59;4974862;28;20641;-68
2023/05/09 07:59:08;;;;;;;15.60;8.23;;;;;;;11.86;nan;-24148.34;4974965;28;20224;-71
2023/05/09 08:01:34;;;;;;;19.25;10.85;;;;;;;11.76;nan;-24145.41;4975038;28;20740;-68
2023/05/09 08:03:59;;;;;;;18.27;9.40;;;;;;;11.69;nan;-24143.56;4974928;28;20181;-69
2023/05/09 08:06:25;;;;;;;20.50;9.35;;;;;;;11.92;nan;-24149.91;4974619;28;20174;-69
2023/05/09 08:08:50;;;;;;;20.25;9.68;;;;;;;11.98;nan;-24151.59;4974310;28;20181;-70
2023/05/09 08:11:16;;;;;;;18.52;9.95;;;;;;;12.01;nan;-24152.44;4974596;28;20267;-69
2023/05/09 08:13:41;;;;;;;24.52;11.02;;;;;;;11.33;nan;-24133.56;4974611;28;20265;-69
2023/05/09 08:16:07;;;;;;;20.60;9.35;;;;;;;12.06;nan;-24153.69;4976084;28;20631;-68
2023/05/09 08:18:32;;;;;;;22.10;10.20;;;;;;;11.67;nan;-24142.84;4974739;28;20193;-70
2023/05/09 08:20:58;;;;;;;22.83;10.48;;;;;;;12.09;nan;-24154.69;4974663;28;20185;-70
2023/05/09 08:23:24;;;;;;;23.58;10.23;;;;;;;12.04;nan;-24153.13;4974858;28;20174;-68
2023/05/09 08:25:53;;;;;;;22.88;10.80;;;;;;;11.88;nan;-24148.91;4973818;28;20173;-69
2023/05/09 08:28:20;;;;;;;20.83;10.13;;;;;;;12.12;nan;-24155.38;4974261;28;20633;-69
2023/05/09 08:30:46;;;;;;;19.95;10.18;;;;;;;12.16;nan;-24156.53;4974751;28;20166;-68
2023/05/09 08:33:12;;;;;;;25.23;11.20;;;;;;;12.35;nan;-24161.88;4973984;28;20173;-69
2023/05/09 08:35:37;;;;;;;28.35;10.25;;;;;;;12.61;nan;-24169.03;4973511;28;20173;-70
2023/05/09 08:38:02;;;;;;;22.50;10.30;;;;;;;12.52;nan;-24166.66;4973642;28;20179;-69
2023/05/09 08:40:28;;;;;;;20.23;9.85;;;;;;;12.13;nan;-24155.81;4972900;28;20231;-69
2023/05/09 08:42:54;;;;;;;18.33;9.43;;;;;;;12.37;nan;-24162.56;4973898;28;20197;-69
2023/05/09 08:45:27;;;;;;;18.58;9.40;;;;;;;12.34;nan;-24161.72;4974218;28;20173;-69
2023/05/09 08:47:53;;;;;;;16.92;8.32;;;;;;;12.37;nan;-24162.44;4974200;28;20181;-69
2023/05/09 08:50:20;;;;;;;18.58;8.57;;;;;;;12.27;nan;-24159.75;4973519;28;20534;-68
2023/05/09 08:52:46;;;;;;;21.50;9.65;;;;;;;12.28;nan;-24160.03;4974128;28;20173;-69
2023/05/09 08:55:11;;;;;;;16.65;8.00;;;;;;;12.08;nan;-24154.41;4974149;28;20172;-70
2023/05/09 08:57:37;;;;;;;16.55;8.38;;;;;;;12.24;nan;-24158.91;4973618;28;20632;-72
2023/05/09 09:00:10;;;;;;;17.42;8.13;;;;;;;12.19;nan;-24157.50;4973808;28;20228;-71
2023/05/09 09:02:36;;;;;;;16.33;8.50;;;;;;;12.32;nan;-24161.16;4973974;28;20206;-70
2023/05/09 09:05:01;;;;;;;17.23;8.38;;;;;;;12.45;nan;-24164.69;4973909;28;20575;-70
2023/05/09 09:07:29;;;;;;;19.25;8.80;;;;;;;12.52;nan;-24166.50;4973483;28;20170;-70
2023/05/09 09:09:56;;;;;;;16.10;8.88;;;;;;;12.53;nan;-24166.94;4973424;28;20312;-68
2023/05/09 09:12:23;;;;;;;19.73;9.20;;;;;;;12.56;nan;-24167.78;4973861;28;20683;-68
2023/05/09 09:14:52;;;;;;;17.60;8.93;;;;;;;12.47;nan;-24165.09;4973191;28;20264;-70
2023/05/09 09:17:20;;;;;;;16.05;8.52;;;;;;;12.80;nan;-24174.53;4973558;28;20589;-69
2023/05/09 09:19:49;;;;;;;15.23;8.00;;;;;;;12.77;nan;-24173.69;4974204;28;20192;-67
2023/05/09 09:22:17;;;;;;;14.35;8.15;;;;;;;12.72;nan;-24172.13;4972928;28;20240;-69
2023/05/09 09:24:43;;;;;;;16.92;8.15;;;;;;;12.55;nan;-24167.34;4973810;28;20233;-68
2023/05/09 09:27:08;;;;;;;18.02;8.57;;;;;;;12.79;nan;-24174.25;4973538;28;20554;-68
2023/05/09 09:29:34;;;;;;;15.40;8.82;;;;;;;12.61;nan;-24169.03;4973416;28;20169;-68
2023/05/09 09:32:04;;;;;;;15.25;8.82;;;;;;;13.10;nan;-24182.81;4973316;28;20177;-70
2023/05/09 09:34:29;;;;;;;14.00;8.18;;;;;;;13.06;nan;-24181.69;4973365;28;20679;-69
2023/05/09 09:36:55;;;;;;;16.88;8.43;;;;;;;13.62;nan;-24197.16;4972830;28;20209;-68
2023/05/09 09:39:20;;;;;;;13.43;7.80;;;;;;;13.80;nan;-24202.06;4973548;28;20665;-69
2023/05/09 09:41:46;;;;;;;13.48;7.80;;;;;;;;;;4973590;28;20205;-69
2023/05/09 09:44:13;;;;;;;16.90;8.50;;;;;;;14.23;nan;-24212.13;4973582;28;20260;-68
2023/05/09 09:46:49;;;;;;;14.65;7.75;;;;;;;14.36;nan;-24215.75;4973400;28;20177;-69
2023/05/09 09:49:16;;;;;;;15.85;7.32;;;;;;;14.16;nan;-23889.94;4988290;28;20177;-70
2023/05/09 09:51:43;;;;;;;13.98;7.70;;;;;;;14.23;nan;-23571.06;4987837;28;20181;-67
2023/05/09 09:54:11;;;;;;;14.68;7.15;;;;;;;14.42;nan;-22293.47;4973480;28;20633;-68
2023/05/09 09:56:40;;;;;;;14.30;7.97;;;;;;;14.59;nan;-22618.41;4973387;28;20205;-68
2023/05/09 09:59:11;;;;;;;14.38;7.60;;;;;;;14.61;nan;-21977.03;4973442;28;20162;-69
2023/05/09 10:02:04;;;;;;;17.52;7.95;;;;;;;14.41;nan;-22613.97;4972641;28;20201;-69
2023/05/09 10:04:31;;;;;;;17.20;9.00;;;;;;;14.41;nan;-21972.28;4973210;28;20216;-69
2023/05/09 10:06:58;;;;;;;16.13;8.18;;;;;;;14.72;nan;-22942.47;4972981;28;20211;-70
2023/05/09 10:09:25;;;;;;;15.88;8.20;;;;;;;14.41;nan;-22613.84;4988385;28;20185;-69
2023/05/09 10:11:52;;;;;;;15.05;8.15;;;;;;;14.16;nan;-23248.91;4972494;28;20228;-70
2023/05/09 10:14:20;;;;;;;14.38;8.00;;;;;;;13.66;nan;-24196.53;4973003;28;20173;-68
2023/05/09 10:16:47;;;;;;;18.77;8.13;;;;;;;13.42;nan;-24189.78;4972578;28;20244;-69
2023/05/09 10:19:19;;;;;;;16.15;8.45;;;;;;;13.32;nan;-24188.88;4972769;28;20264;-68
2023/05/09 10:21:56;;;;;;;17.75;8.50;;;;;;;13.46;nan;-24192.78;4434696;28;21367;-68
2023/05/09 10:24:41;;;;;;;16.92;8.45;;;;;;;13.46;nan;-24192.66;4675201;28;20253;-69
2023/05/09 10:27:10;;;;;;;13.65;7.47;;;;;;;13.77;nan;-24199.34;4972736;28;20268;-70
2023/05/09 10:29:50;;;;;;;15.30;8.23;;;;;;;14.15;nan;-24210.16;4971680;28;20568;-69
2023/05/09 10:32:30;;;;;;;16.45;8.30;;;;;;;13.90;nan;-23562.28;4973383;28;20220;-68
2023/05/09 10:35:00;;;;;;;14.52;7.80;;;;;;;13.97;nan;-23564.31;4971887;28;20200;-68
2023/05/09 10:37:27;;;;;;;15.93;8.10;;;;;;;13.89;nan;-22280.38;4972588;28;20176;-67
2023/05/09 10:39:54;;;;;;;15.73;7.93;;;;;;;13.68;nan;-23236.19;4973074;28;20188;-68
2023/05/09 10:42:21;;;;;;;15.50;7.00;;;;;;;13.79;nan;-23879.75;4972931;28;20655;-68
2023/05/09 10:44:48;;;;;;;13.20;7.15;;;;;;;13.84;nan;-23881.13;4971604;28;20197;-72
2023/05/09 10:47:14;;;;;;;14.40;6.82;;;;;;;13.56;nan;-24195.47;4972793;28;20652;-67
2023/05/09 10:49:41;;;;;;;12.43;7.28;;;;;;;13.75;nan;-24198.94;4972817;28;20272;-70
2023/05/09 10:52:06;;;;;;;14.60;7.28;;;;;;;13.67;nan;-24196.81;4972660;28;20227;-69
2023/05/09 10:54:36;;;;;;;17.25;8.55;;;;;;;13.44;nan;-24190.22;4972757;28;20631;-69
2023/05/09 10:57:02;;;;;;;15.30;7.65;;;;;;;13.46;nan;-24192.66;4972674;28;20590;-69
2023/05/09 10:59:37;;;;;;;12.98;7.15;;;;;;;13.64;nan;-24197.72;4973121;28;20177;-70
2023/05/09 11:02:03;;;;;;;11.60;7.07;;;;;;;13.84;nan;-24201.31;4972770;28;20211;-71
2023/05/09 11:04:30;;;;;;;13.15;7.45;;;;;;;13.82;nan;-24200.88;4972681;28;20335;-69
2023/05/09 11:06:58;;;;;;;13.07;7.30;;;;;;;13.38;nan;-24190.41;4972518;28;20173;-71
2023/05/09 11:09:25;;;;;;;12.25;6.75;;;;;;;13.31;nan;-24186.72;4972755;28;20240;-67
2023/05/09 11:11:52;;;;;;;10.90;6.38;;;;;;;13.37;nan;-24188.25;4973340;28;20272;-69
2023/05/09 11:14:36;;;;;;;11.23;6.40;;;;;;;13.42;nan;-24191.66;4975693;28;20181;-69
2023/05/09 11:17:06;;;;;;;11.18;6.35;;;;;;;13.36;nan;-24190.00;4991031;28;20606;-68
2023/05/09 11:19:45;;;;;;;12.23;6.40;;;;;;;13.60;nan;-24194.84;4976436;28;20315;-68
2023/05/09 11:22:23;;;;;;;13.63;6.43;;;;;;;13.85;nan;-23561.06;4991503;28;20588;-72
2023/05/09 11:24:59;;;;;;;12.95;6.25;;;;;;;13.91;nan;-24205.16;4977587;28;20196;-69
2023/05/09 11:27:27;;;;;;;12.50;7.00;;;;;;;14.33;nan;-22291.22;4975896;28;20177;-68
2023/05/09 11:29:53;;;;;;;13.23;7.05;;;;;;;14.85;nan;-21661.97;4976378;28;20166;-70
2023/05/09 11:32:23;;;;;;;13.18;7.03;;;;;;;14.68;nan;-18125.19;4975932;28;20189;-70
2023/05/09 11:34:48;;;;;;;14.43;7.18;;;;;;;14.89;nan;-17486.03;4975971;28;20599;-69